sensor_id;sensor_type;location;lat;lon;timestamp;P1;durP1;ratioP1;P2;durP2;ratioP2
29358;SDS011;16347;53.232;6.556;2022-08-19T00:01:27;6.70;;;4.10;;
29358;SDS011;16347;53.232;6.556;2022-08-19T00:03:57;6.18;;;3.75;;
29358;SDS011;16347;53.232;6.556;2022-08-19T00:06:27;5.00;;;4.00;;
29358;SDS011;16347;53.232;6.556;2022-08-19T00:08:56;7.85;;;4.65;;
29358;SDS011;16347;53.232;6.556;2022-08-19T00:11:27;9.15;;;4.50;;
29358;SDS011;16347;53.232;6.556;2022-08-19T00:13:56;8.63;;;3.97;;
29358;SDS011;16347;53.232;6.556;2022-08-19T00:16:25;7.63;;;3.70;;
29358;SDS011;16347;53.232;6.556;2022-08-19T00:18:53;5.13;;;3.70;;
29358;SDS011;16347;53.232;6.556;2022-08-19T00:21:23;4.90;;;3.83;;
29358;SDS011;16347;53.232;6.556;2022-08-19T00:23:53;6.22;;;3.63;;
29358;SDS011;16347;53.232;6.556;2022-08-19T00:26:21;7.93;;;4.07;;
29358;SDS011;16347;53.232;6.556;2022-08-19T00:28:51;11.05;;;4.30;;
29358;SDS011;16347;53.232;6.556;2022-08-19T00:31:19;9.43;;;4.22;;
29358;SDS011;16347;53.232;6.556;2022-08-19T00:33:47;4.65;;;3.58;;
29358;SDS011;16347;53.232;6.556;2022-08-19T00:36:17;10.38;;;3.80;;
29358;SDS011;16347;53.232;6.556;2022-08-19T00:38:45;7.43;;;3.72;;
29358;SDS011;16347;53.232;6.556;2022-08-19T00:41:14;7.90;;;3.45;;
29358;SDS011;16347;53.232;6.556;2022-08-19T00:43:49;5.72;;;3.35;;
29358;SDS011;16347;53.232;6.556;2022-08-19T00:46:26;5.63;;;3.83;;
29358;SDS011;16347;53.232;6.556;2022-08-19T00:48:55;9.35;;;4.47;;
29358;SDS011;16347;53.232;6.556;2022-08-19T00:51:24;8.52;;;3.58;;
29358;SDS011;16347;53.232;6.556;2022-08-19T00:53:53;8.45;;;3.97;;
29358;SDS011;16347;53.232;6.556;2022-08-19T00:56:22;6.85;;;3.65;;
29358;SDS011;16347;53.232;6.556;2022-08-19T00:58:53;8.07;;;3.10;;
29358;SDS011;16347;53.232;6.556;2022-08-19T01:01:25;6.93;;;3.90;;
29358;SDS011;16347;53.232;6.556;2022-08-19T01:03:53;6.50;;;3.50;;
29358;SDS011;16347;53.232;6.556;2022-08-19T01:06:24;5.63;;;3.92;;
29358;SDS011;16347;53.232;6.556;2022-08-19T01:08:53;8.13;;;4.07;;
29358;SDS011;16347;53.232;6.556;2022-08-19T01:11:21;17.23;;;3.75;;
29358;SDS011;16347;53.232;6.556;2022-08-19T01:13:50;9.43;;;4.50;;
29358;SDS011;16347;53.232;6.556;2022-08-19T01:16:20;6.55;;;4.10;;
29358;SDS011;16347;53.232;6.556;2022-08-19T01:18:52;6.38;;;4.15;;
29358;SDS011;16347;53.232;6.556;2022-08-19T01:21:26;9.80;;;4.63;;
29358;SDS011;16347;53.232;6.556;2022-08-19T01:24:01;7.05;;;3.38;;
29358;SDS011;16347;53.232;6.556;2022-08-19T01:26:30;7.75;;;3.75;;
29358;SDS011;16347;53.232;6.556;2022-08-19T01:28:58;6.47;;;3.33;;
29358;SDS011;16347;53.232;6.556;2022-08-19T01:31:28;4.53;;;2.80;;
29358;SDS011;16347;53.232;6.556;2022-08-19T01:33:59;6.50;;;3.80;;
29358;SDS011;16347;53.232;6.556;2022-08-19T01:36:31;8.73;;;4.60;;
29358;SDS011;16347;53.232;6.556;2022-08-19T01:39:05;7.30;;;4.10;;
29358;SDS011;16347;53.232;6.556;2022-08-19T01:41:39;6.90;;;3.47;;
29358;SDS011;16347;53.232;6.556;2022-08-19T01:44:08;9.55;;;4.35;;
29358;SDS011;16347;53.232;6.556;2022-08-19T01:46:45;11.02;;;4.88;;
29358;SDS011;16347;53.232;6.556;2022-08-19T01:49:16;9.32;;;4.38;;
29358;SDS011;16347;53.232;6.556;2022-08-19T01:51:46;6.82;;;4.22;;
29358;SDS011;16347;53.232;6.556;2022-08-19T01:54:17;5.95;;;3.17;;
29358;SDS011;16347;53.232;6.556;2022-08-19T01:56:55;8.45;;;3.72;;
29358;SDS011;16347;53.232;6.556;2022-08-19T01:59:28;11.75;;;5.00;;
29358;SDS011;16347;53.232;6.556;2022-08-19T02:01:59;7.32;;;3.92;;
29358;SDS011;16347;53.232;6.556;2022-08-19T02:04:29;6.25;;;4.18;;
29358;SDS011;16347;53.232;6.556;2022-08-19T02:06:59;9.65;;;4.47;;
29358;SDS011;16347;53.232;6.556;2022-08-19T02:09:31;6.97;;;4.75;;
29358;SDS011;16347;53.232;6.556;2022-08-19T02:11:59;9.52;;;5.50;;
29358;SDS011;16347;53.232;6.556;2022-08-19T02:14:28;10.55;;;4.57;;
29358;SDS011;16347;53.232;6.556;2022-08-19T02:16:56;6.50;;;4.15;;
29358;SDS011;16347;53.232;6.556;2022-08-19T02:19:24;6.88;;;3.92;;
29358;SDS011;16347;53.232;6.556;2022-08-19T02:21:52;10.13;;;4.43;;
29358;SDS011;16347;53.232;6.556;2022-08-19T02:24:20;10.48;;;5.68;;
29358;SDS011;16347;53.232;6.556;2022-08-19T02:26:49;10.15;;;5.22;;
29358;SDS011;16347;53.232;6.556;2022-08-19T02:29:17;11.40;;;5.30;;
29358;SDS011;16347;53.232;6.556;2022-08-19T02:31:45;7.40;;;4.30;;
29358;SDS011;16347;53.232;6.556;2022-08-19T02:34:13;7.55;;;3.70;;
29358;SDS011;16347;53.232;6.556;2022-08-19T02:36:41;7.88;;;4.85;;
29358;SDS011;16347;53.232;6.556;2022-08-19T02:39:17;11.15;;;5.10;;
29358;SDS011;16347;53.232;6.556;2022-08-19T02:41:44;6.88;;;3.90;;
29358;SDS011;16347;53.232;6.556;2022-08-19T02:44:13;9.20;;;4.55;;
29358;SDS011;16347;53.232;6.556;2022-08-19T02:46:57;6.00;;;3.95;;
29358;SDS011;16347;53.232;6.556;2022-08-19T02:49:25;12.23;;;4.07;;
29358;SDS011;16347;53.232;6.556;2022-08-19T02:51:53;8.88;;;4.10;;
29358;SDS011;16347;53.232;6.556;2022-08-19T02:54:21;8.18;;;4.10;;
29358;SDS011;16347;53.232;6.556;2022-08-19T02:56:49;5.93;;;3.65;;
29358;SDS011;16347;53.232;6.556;2022-08-19T02:59:19;6.30;;;3.35;;
29358;SDS011;16347;53.232;6.556;2022-08-19T03:01:48;6.00;;;3.80;;
29358;SDS011;16347;53.232;6.556;2022-08-19T03:04:17;6.90;;;3.83;;
29358;SDS011;16347;53.232;6.556;2022-08-19T03:06:46;4.75;;;3.38;;
29358;SDS011;16347;53.232;6.556;2022-08-19T03:09:15;5.05;;;3.60;;
29358;SDS011;16347;53.232;6.556;2022-08-19T03:11:44;6.82;;;3.95;;
29358;SDS011;16347;53.232;6.556;2022-08-19T03:14:15;6.75;;;3.83;;
29358;SDS011;16347;53.232;6.556;2022-08-19T03:16:46;14.57;;;4.68;;
29358;SDS011;16347;53.232;6.556;2022-08-19T03:19:19;5.55;;;3.78;;
29358;SDS011;16347;53.232;6.556;2022-08-19T03:21:49;7.53;;;4.22;;
29358;SDS011;16347;53.232;6.556;2022-08-19T03:24:18;7.00;;;3.65;;
29358;SDS011;16347;53.232;6.556;2022-08-19T03:26:47;9.23;;;4.15;;
29358;SDS011;16347;53.232;6.556;2022-08-19T03:29:17;6.57;;;4.32;;
29358;SDS011;16347;53.232;6.556;2022-08-19T03:31:58;7.38;;;3.40;;
29358;SDS011;16347;53.232;6.556;2022-08-19T03:39:33;5.50;;;3.50;;
29358;SDS011;16347;53.232;6.556;2022-08-19T03:42:03;5.47;;;4.43;;
29358;SDS011;16347;53.232;6.556;2022-08-19T03:44:52;7.47;;;4.68;;
29358;SDS011;16347;53.232;6.556;2022-08-19T03:47:22;12.82;;;5.13;;
29358;SDS011;16347;53.232;6.556;2022-08-19T03:49:49;4.07;;;3.38;;
29358;SDS011;16347;53.232;6.556;2022-08-19T03:52:18;5.55;;;3.97;;
29358;SDS011;16347;53.232;6.556;2022-08-19T03:54:46;5.78;;;3.97;;
29358;SDS011;16347;53.232;6.556;2022-08-19T03:57:13;7.00;;;3.97;;
29358;SDS011;16347;53.232;6.556;2022-08-19T03:59:41;5.57;;;4.07;;
29358;SDS011;16347;53.232;6.556;2022-08-19T04:02:11;7.78;;;4.18;;
29358;SDS011;16347;53.232;6.556;2022-08-19T04:04:42;8.15;;;4.78;;
29358;SDS011;16347;53.232;6.556;2022-08-19T04:07:11;7.32;;;4.38;;
29358;SDS011;16347;53.232;6.556;2022-08-19T04:09:42;5.57;;;3.67;;
29358;SDS011;16347;53.232;6.556;2022-08-19T04:12:10;4.97;;;3.60;;
29358;SDS011;16347;53.232;6.556;2022-08-19T04:14:40;8.02;;;4.68;;
29358;SDS011;16347;53.232;6.556;2022-08-19T04:17:12;6.38;;;4.25;;
29358;SDS011;16347;53.232;6.556;2022-08-19T04:19:45;9.27;;;4.43;;
29358;SDS011;16347;53.232;6.556;2022-08-19T04:22:14;5.68;;;2.97;;
29358;SDS011;16347;53.232;6.556;2022-08-19T04:24:44;8.10;;;3.22;;
29358;SDS011;16347;53.232;6.556;2022-08-19T04:27:15;8.63;;;3.88;;
29358;SDS011;16347;53.232;6.556;2022-08-19T04:29:45;5.80;;;2.83;;
29358;SDS011;16347;53.232;6.556;2022-08-19T04:32:14;8.90;;;5.65;;
29358;SDS011;16347;53.232;6.556;2022-08-19T04:34:45;4.60;;;3.25;;
29358;SDS011;16347;53.232;6.556;2022-08-19T04:37:36;4.90;;;2.97;;
29358;SDS011;16347;53.232;6.556;2022-08-19T04:40:07;8.30;;;5.10;;
29358;SDS011;16347;53.232;6.556;2022-08-19T04:42:54;5.72;;;3.80;;
29358;SDS011;16347;53.232;6.556;2022-08-19T04:45:23;6.10;;;3.97;;
29358;SDS011;16347;53.232;6.556;2022-08-19T04:47:54;6.43;;;3.95;;
29358;SDS011;16347;53.232;6.556;2022-08-19T04:50:46;5.82;;;4.25;;
29358;SDS011;16347;53.232;6.556;2022-08-19T04:53:15;7.70;;;5.00;;
29358;SDS011;16347;53.232;6.556;2022-08-19T04:55:45;6.35;;;4.85;;
29358;SDS011;16347;53.232;6.556;2022-08-19T04:58:13;7.28;;;3.90;;
29358;SDS011;16347;53.232;6.556;2022-08-19T05:00:43;7.05;;;4.43;;
29358;SDS011;16347;53.232;6.556;2022-08-19T05:03:12;10.20;;;5.00;;
29358;SDS011;16347;53.232;6.556;2022-08-19T05:05:44;10.07;;;5.50;;
29358;SDS011;16347;53.232;6.556;2022-08-19T05:08:17;9.18;;;5.30;;
29358;SDS011;16347;53.232;6.556;2022-08-19T05:10:57;10.80;;;6.22;;
29358;SDS011;16347;53.232;6.556;2022-08-19T05:13:26;8.25;;;6.03;;
29358;SDS011;16347;53.232;6.556;2022-08-19T05:15:55;11.65;;;7.10;;
29358;SDS011;16347;53.232;6.556;2022-08-19T05:18:28;11.50;;;7.43;;
29358;SDS011;16347;53.232;6.556;2022-08-19T05:21:17;13.02;;;7.82;;
29358;SDS011;16347;53.232;6.556;2022-08-19T05:24:05;10.90;;;9.23;;
29358;SDS011;16347;53.232;6.556;2022-08-19T05:26:37;16.95;;;10.52;;
29358;SDS011;16347;53.232;6.556;2022-08-19T05:29:10;13.48;;;9.73;;
29358;SDS011;16347;53.232;6.556;2022-08-19T05:31:39;15.63;;;9.60;;
29358;SDS011;16347;53.232;6.556;2022-08-19T05:34:10;16.50;;;9.77;;
29358;SDS011;16347;53.232;6.556;2022-08-19T05:36:49;15.80;;;10.70;;
29358;SDS011;16347;53.232;6.556;2022-08-19T05:39:27;14.98;;;10.30;;
29358;SDS011;16347;53.232;6.556;2022-08-19T05:42:06;16.20;;;10.40;;
29358;SDS011;16347;53.232;6.556;2022-08-19T05:44:42;17.60;;;10.32;;
29358;SDS011;16347;53.232;6.556;2022-08-19T05:47:15;16.08;;;10.40;;
29358;SDS011;16347;53.232;6.556;2022-08-19T05:49:48;15.67;;;10.67;;
29358;SDS011;16347;53.232;6.556;2022-08-19T05:52:21;16.00;;;11.05;;
29358;SDS011;16347;53.232;6.556;2022-08-19T05:54:53;12.82;;;9.25;;
29358;SDS011;16347;53.232;6.556;2022-08-19T05:57:24;21.23;;;11.38;;
29358;SDS011;16347;53.232;6.556;2022-08-19T05:59:56;15.95;;;10.43;;
29358;SDS011;16347;53.232;6.556;2022-08-19T06:02:37;15.98;;;10.70;;
29358;SDS011;16347;53.232;6.556;2022-08-19T06:05:06;18.65;;;10.60;;
29358;SDS011;16347;53.232;6.556;2022-08-19T06:07:38;14.68;;;10.32;;
29358;SDS011;16347;53.232;6.556;2022-08-19T06:10:09;18.50;;;10.60;;
29358;SDS011;16347;53.232;6.556;2022-08-19T06:12:38;18.67;;;10.40;;
29358;SDS011;16347;53.232;6.556;2022-08-19T06:15:07;16.83;;;10.68;;
29358;SDS011;16347;53.232;6.556;2022-08-19T06:17:37;18.33;;;9.95;;
29358;SDS011;16347;53.232;6.556;2022-08-19T06:20:07;20.92;;;10.70;;
29358;SDS011;16347;53.232;6.556;2022-08-19T06:22:43;15.38;;;10.00;;
29358;SDS011;16347;53.232;6.556;2022-08-19T06:25:14;19.23;;;10.20;;
29358;SDS011;16347;53.232;6.556;2022-08-19T06:27:44;14.52;;;8.88;;
29358;SDS011;16347;53.232;6.556;2022-08-19T06:30:36;14.70;;;8.63;;
29358;SDS011;16347;53.232;6.556;2022-08-19T06:33:06;11.77;;;8.25;;
29358;SDS011;16347;53.232;6.556;2022-08-19T06:35:38;17.40;;;9.35;;
29358;SDS011;16347;53.232;6.556;2022-08-19T06:38:11;12.27;;;8.82;;
29358;SDS011;16347;53.232;6.556;2022-08-19T06:40:40;16.02;;;9.25;;
29358;SDS011;16347;53.232;6.556;2022-08-19T06:43:09;16.25;;;9.32;;
29358;SDS011;16347;53.232;6.556;2022-08-19T06:45:39;12.65;;;9.00;;
29358;SDS011;16347;53.232;6.556;2022-08-19T06:48:10;16.08;;;9.63;;
29358;SDS011;16347;53.232;6.556;2022-08-19T06:53:17;13.40;;;8.07;;
29358;SDS011;16347;53.232;6.556;2022-08-19T06:55:49;14.80;;;7.78;;
29358;SDS011;16347;53.232;6.556;2022-08-19T06:58:28;11.68;;;8.35;;
29358;SDS011;16347;53.232;6.556;2022-08-19T07:01:01;12.30;;;8.65;;
29358;SDS011;16347;53.232;6.556;2022-08-19T07:03:36;15.02;;;8.40;;
29358;SDS011;16347;53.232;6.556;2022-08-19T07:06:09;17.27;;;8.45;;
29358;SDS011;16347;53.232;6.556;2022-08-19T07:09:02;17.63;;;8.77;;
29358;SDS011;16347;53.232;6.556;2022-08-19T07:11:33;17.25;;;8.93;;
29358;SDS011;16347;53.232;6.556;2022-08-19T07:14:05;16.52;;;7.82;;
29358;SDS011;16347;53.232;6.556;2022-08-19T07:16:45;14.40;;;9.05;;
29358;SDS011;16347;53.232;6.556;2022-08-19T07:19:17;13.50;;;8.63;;
29358;SDS011;16347;53.232;6.556;2022-08-19T07:21:50;13.60;;;8.20;;
29358;SDS011;16347;53.232;6.556;2022-08-19T07:24:22;21.15;;;10.55;;
29358;SDS011;16347;53.232;6.556;2022-08-19T07:27:02;14.02;;;9.32;;
29358;SDS011;16347;53.232;6.556;2022-08-19T07:29:41;13.30;;;8.15;;
29358;SDS011;16347;53.232;6.556;2022-08-19T07:32:22;12.15;;;8.70;;
29358;SDS011;16347;53.232;6.556;2022-08-19T07:34:55;14.57;;;8.82;;
29358;SDS011;16347;53.232;6.556;2022-08-19T07:37:30;16.95;;;10.52;;
29358;SDS011;16347;53.232;6.556;2022-08-19T07:40:03;17.80;;;10.02;;
29358;SDS011;16347;53.232;6.556;2022-08-19T07:42:33;20.80;;;10.10;;
29358;SDS011;16347;53.232;6.556;2022-08-19T07:45:02;14.73;;;9.85;;
29358;SDS011;16347;53.232;6.556;2022-08-19T07:47:34;14.95;;;9.80;;
29358;SDS011;16347;53.232;6.556;2022-08-19T07:50:25;12.48;;;9.48;;
29358;SDS011;16347;53.232;6.556;2022-08-19T07:52:55;12.88;;;9.75;;
29358;SDS011;16347;53.232;6.556;2022-08-19T07:55:28;17.08;;;10.23;;
29358;SDS011;16347;53.232;6.556;2022-08-19T07:58:11;14.68;;;10.00;;
29358;SDS011;16347;53.232;6.556;2022-08-19T08:00:46;17.85;;;10.35;;
29358;SDS011;16347;53.232;6.556;2022-08-19T08:03:21;12.60;;;8.57;;
29358;SDS011;16347;53.232;6.556;2022-08-19T08:06:14;14.07;;;9.57;;
29358;SDS011;16347;53.232;6.556;2022-08-19T08:09:04;17.35;;;10.15;;
29358;SDS011;16347;53.232;6.556;2022-08-19T08:11:48;16.27;;;9.70;;
29358;SDS011;16347;53.232;6.556;2022-08-19T08:14:22;13.38;;;9.65;;
29358;SDS011;16347;53.232;6.556;2022-08-19T08:17:02;17.10;;;11.48;;
29358;SDS011;16347;53.232;6.556;2022-08-19T08:19:40;17.50;;;10.00;;
29358;SDS011;16347;53.232;6.556;2022-08-19T08:22:18;19.52;;;9.50;;
29358;SDS011;16347;53.232;6.556;2022-08-19T08:25:11;15.80;;;9.85;;
29358;SDS011;16347;53.232;6.556;2022-08-19T08:27:46;17.05;;;10.10;;
29358;SDS011;16347;53.232;6.556;2022-08-19T08:30:23;14.15;;;8.02;;
29358;SDS011;16347;53.232;6.556;2022-08-19T08:33:01;10.70;;;7.15;;
29358;SDS011;16347;53.232;6.556;2022-08-19T08:38:06;11.40;;;8.88;;
29358;SDS011;16347;53.232;6.556;2022-08-19T08:40:39;15.05;;;8.77;;
29358;SDS011;16347;53.232;6.556;2022-08-19T08:43:21;15.10;;;10.15;;
29358;SDS011;16347;53.232;6.556;2022-08-19T08:46:00;20.52;;;11.20;;
29358;SDS011;16347;53.232;6.556;2022-08-19T08:48:36;16.55;;;11.45;;
29358;SDS011;16347;53.232;6.556;2022-08-19T08:51:13;14.27;;;10.13;;
29358;SDS011;16347;53.232;6.556;2022-08-19T08:53:48;18.85;;;12.25;;
29358;SDS011;16347;53.232;6.556;2022-08-19T08:56:23;15.45;;;11.30;;
29358;SDS011;16347;53.232;6.556;2022-08-19T08:59:00;14.75;;;10.77;;
29358;SDS011;16347;53.232;6.556;2022-08-19T09:01:36;16.15;;;10.85;;
29358;SDS011;16347;53.232;6.556;2022-08-19T09:04:05;16.67;;;10.23;;
29358;SDS011;16347;53.232;6.556;2022-08-19T09:06:40;15.90;;;10.30;;
29358;SDS011;16347;53.232;6.556;2022-08-19T09:09:20;13.30;;;9.35;;
29358;SDS011;16347;53.232;6.556;2022-08-19T09:12:01;19.08;;;11.65;;
29358;SDS011;16347;53.232;6.556;2022-08-19T09:14:42;13.07;;;9.10;;
29358;SDS011;16347;53.232;6.556;2022-08-19T09:17:18;19.00;;;11.75;;
29358;SDS011;16347;53.232;6.556;2022-08-19T09:19:51;14.00;;;9.90;;
29358;SDS011;16347;53.232;6.556;2022-08-19T09:22:21;15.57;;;11.35;;
29358;SDS011;16347;53.232;6.556;2022-08-19T09:24:51;17.38;;;11.75;;
29358;SDS011;16347;53.232;6.556;2022-08-19T09:27:20;16.65;;;12.43;;
29358;SDS011;16347;53.232;6.556;2022-08-19T09:30:12;14.90;;;9.95;;
29358;SDS011;16347;53.232;6.556;2022-08-19T09:32:44;14.70;;;11.02;;
29358;SDS011;16347;53.232;6.556;2022-08-19T09:35:18;17.75;;;12.43;;
29358;SDS011;16347;53.232;6.556;2022-08-19T09:37:50;16.92;;;11.68;;
29358;SDS011;16347;53.232;6.556;2022-08-19T09:40:25;17.88;;;10.70;;
29358;SDS011;16347;53.232;6.556;2022-08-19T09:42:55;15.13;;;10.43;;
29358;SDS011;16347;53.232;6.556;2022-08-19T09:45:37;13.63;;;9.60;;
29358;SDS011;16347;53.232;6.556;2022-08-19T09:48:05;16.10;;;11.25;;
29358;SDS011;16347;53.232;6.556;2022-08-19T09:50:35;13.95;;;9.82;;
29358;SDS011;16347;53.232;6.556;2022-08-19T09:53:17;13.63;;;9.80;;
29358;SDS011;16347;53.232;6.556;2022-08-19T09:55:51;12.82;;;9.63;;
29358;SDS011;16347;53.232;6.556;2022-08-19T09:58:19;14.07;;;10.63;;
29358;SDS011;16347;53.232;6.556;2022-08-19T10:00:53;14.27;;;10.27;;
29358;SDS011;16347;53.232;6.556;2022-08-19T10:03:22;14.80;;;11.60;;
29358;SDS011;16347;53.232;6.556;2022-08-19T10:05:56;13.90;;;10.52;;
29358;SDS011;16347;53.232;6.556;2022-08-19T10:08:27;12.18;;;10.02;;
29358;SDS011;16347;53.232;6.556;2022-08-19T10:10:58;19.73;;;12.10;;
29358;SDS011;16347;53.232;6.556;2022-08-19T10:13:48;15.45;;;11.07;;
29358;SDS011;16347;53.232;6.556;2022-08-19T10:16:22;14.30;;;10.32;;
29358;SDS011;16347;53.232;6.556;2022-08-19T10:18:56;18.52;;;10.90;;
29358;SDS011;16347;53.232;6.556;2022-08-19T10:21:32;16.60;;;11.55;;
29358;SDS011;16347;53.232;6.556;2022-08-19T10:24:08;17.35;;;11.48;;
29358;SDS011;16347;53.232;6.556;2022-08-19T10:26:47;17.40;;;11.80;;
29358;SDS011;16347;53.232;6.556;2022-08-19T10:29:23;20.05;;;11.20;;
29358;SDS011;16347;53.232;6.556;2022-08-19T10:32:01;16.08;;;12.48;;
29358;SDS011;16347;53.232;6.556;2022-08-19T10:34:36;18.85;;;13.43;;
29358;SDS011;16347;53.232;6.556;2022-08-19T10:37:16;13.50;;;10.63;;
29358;SDS011;16347;53.232;6.556;2022-08-19T10:39:56;16.73;;;11.18;;
29358;SDS011;16347;53.232;6.556;2022-08-19T10:42:26;14.90;;;11.55;;
29358;SDS011;16347;53.232;6.556;2022-08-19T10:44:58;17.35;;;11.93;;
29358;SDS011;16347;53.232;6.556;2022-08-19T10:50:03;16.88;;;11.98;;
29358;SDS011;16347;53.232;6.556;2022-08-19T10:52:55;18.35;;;13.70;;
29358;SDS011;16347;53.232;6.556;2022-08-19T10:55:26;19.92;;;13.10;;
29358;SDS011;16347;53.232;6.556;2022-08-19T10:58:13;19.20;;;13.95;;
29358;SDS011;16347;53.232;6.556;2022-08-19T11:00:50;15.02;;;11.50;;
29358;SDS011;16347;53.232;6.556;2022-08-19T11:03:25;14.77;;;11.05;;
29358;SDS011;16347;53.232;6.556;2022-08-19T11:06:17;16.80;;;12.15;;
29358;SDS011;16347;53.232;6.556;2022-08-19T11:08:47;18.35;;;14.23;;
29358;SDS011;16347;53.232;6.556;2022-08-19T11:11:17;20.40;;;12.80;;
29358;SDS011;16347;53.232;6.556;2022-08-19T11:13:46;17.10;;;12.65;;
29358;SDS011;16347;53.232;6.556;2022-08-19T11:16:16;21.38;;;14.90;;
29358;SDS011;16347;53.232;6.556;2022-08-19T11:18:52;15.30;;;11.32;;
29358;SDS011;16347;53.232;6.556;2022-08-19T11:21:28;13.88;;;9.48;;
29358;SDS011;16347;53.232;6.556;2022-08-19T11:24:00;15.18;;;11.40;;
29358;SDS011;16347;53.232;6.556;2022-08-19T11:26:32;15.82;;;10.52;;
29358;SDS011;16347;53.232;6.556;2022-08-19T11:34:11;18.52;;;11.18;;
29358;SDS011;16347;53.232;6.556;2022-08-19T11:36:45;17.85;;;12.23;;
29358;SDS011;16347;53.232;6.556;2022-08-19T11:39:18;17.25;;;13.55;;
29358;SDS011;16347;53.232;6.556;2022-08-19T11:41:48;21.45;;;13.57;;
29358;SDS011;16347;53.232;6.556;2022-08-19T11:44:19;16.27;;;11.85;;
29358;SDS011;16347;53.232;6.556;2022-08-19T11:46:49;15.23;;;12.07;;
29358;SDS011;16347;53.232;6.556;2022-08-19T11:49:22;18.73;;;12.50;;
29358;SDS011;16347;53.232;6.556;2022-08-19T11:51:55;15.02;;;11.05;;
29358;SDS011;16347;53.232;6.556;2022-08-19T11:54:26;15.30;;;11.82;;
29358;SDS011;16347;53.232;6.556;2022-08-19T11:56:57;14.65;;;11.27;;
29358;SDS011;16347;53.232;6.556;2022-08-19T11:59:28;15.05;;;11.27;;
29358;SDS011;16347;53.232;6.556;2022-08-19T12:01:57;13.23;;;10.32;;
29358;SDS011;16347;53.232;6.556;2022-08-19T12:04:28;16.83;;;9.65;;
29358;SDS011;16347;53.232;6.556;2022-08-19T12:06:56;12.65;;;9.93;;
29358;SDS011;16347;53.232;6.556;2022-08-19T12:09:24;13.93;;;11.25;;
29358;SDS011;16347;53.232;6.556;2022-08-19T12:11:58;14.32;;;12.20;;
29358;SDS011;16347;53.232;6.556;2022-08-19T12:14:29;11.35;;;9.75;;
29358;SDS011;16347;53.232;6.556;2022-08-19T12:16:58;12.13;;;8.63;;
29358;SDS011;16347;53.232;6.556;2022-08-19T12:19:27;14.23;;;9.57;;
29358;SDS011;16347;53.232;6.556;2022-08-19T12:22:00;13.50;;;9.57;;
29358;SDS011;16347;53.232;6.556;2022-08-19T12:24:37;11.93;;;9.43;;
29358;SDS011;16347;53.232;6.556;2022-08-19T12:27:12;13.10;;;10.23;;
29358;SDS011;16347;53.232;6.556;2022-08-19T12:30:09;15.02;;;9.13;;
29358;SDS011;16347;53.232;6.556;2022-08-19T12:32:45;17.02;;;9.88;;
29358;SDS011;16347;53.232;6.556;2022-08-19T12:35:15;12.45;;;9.55;;
29358;SDS011;16347;53.232;6.556;2022-08-19T12:37:46;14.00;;;10.43;;
29358;SDS011;16347;53.232;6.556;2022-08-19T12:40:23;23.63;;;11.02;;
29358;SDS011;16347;53.232;6.556;2022-08-19T12:42:53;13.63;;;10.48;;
29358;SDS011;16347;53.232;6.556;2022-08-19T12:45:23;13.52;;;11.02;;
29358;SDS011;16347;53.232;6.556;2022-08-19T12:47:52;20.58;;;10.00;;
29358;SDS011;16347;53.232;6.556;2022-08-19T12:50:23;17.33;;;8.68;;
29358;SDS011;16347;53.232;6.556;2022-08-19T12:52:53;15.68;;;8.82;;
29358;SDS011;16347;53.232;6.556;2022-08-19T12:57:58;15.60;;;10.82;;
29358;SDS011;16347;53.232;6.556;2022-08-19T13:00:28;14.65;;;9.45;;
29358;SDS011;16347;53.232;6.556;2022-08-19T13:03:00;16.27;;;10.55;;
29358;SDS011;16347;53.232;6.556;2022-08-19T13:05:32;13.23;;;9.75;;
29358;SDS011;16347;53.232;6.556;2022-08-19T13:08:03;16.38;;;9.45;;
29358;SDS011;16347;53.232;6.556;2022-08-19T13:10:33;14.18;;;9.13;;
29358;SDS011;16347;53.232;6.556;2022-08-19T13:13:06;13.70;;;10.70;;
29358;SDS011;16347;53.232;6.556;2022-08-19T13:15:38;21.02;;;13.15;;
29358;SDS011;16347;53.232;6.556;2022-08-19T13:18:08;20.63;;;13.10;;
29358;SDS011;16347;53.232;6.556;2022-08-19T13:20:39;23.48;;;14.30;;
29358;SDS011;16347;53.232;6.556;2022-08-19T13:23:19;22.17;;;14.43;;
29358;SDS011;16347;53.232;6.556;2022-08-19T13:25:55;21.08;;;13.52;;
29358;SDS011;16347;53.232;6.556;2022-08-19T13:28:25;20.52;;;12.80;;
29358;SDS011;16347;53.232;6.556;2022-08-19T13:31:15;21.52;;;14.57;;
29358;SDS011;16347;53.232;6.556;2022-08-19T13:34:02;17.45;;;11.10;;
29358;SDS011;16347;53.232;6.556;2022-08-19T13:36:34;17.52;;;11.07;;
29358;SDS011;16347;53.232;6.556;2022-08-19T13:39:06;16.52;;;10.80;;
29358;SDS011;16347;53.232;6.556;2022-08-19T13:41:42;16.17;;;10.00;;
29358;SDS011;16347;53.232;6.556;2022-08-19T13:44:14;18.15;;;10.73;;
29358;SDS011;16347;53.232;6.556;2022-08-19T13:46:46;17.85;;;10.90;;
29358;SDS011;16347;53.232;6.556;2022-08-19T13:49:21;22.05;;;13.82;;
29358;SDS011;16347;53.232;6.556;2022-08-19T13:51:53;15.23;;;10.90;;
29358;SDS011;16347;53.232;6.556;2022-08-19T13:54:23;16.60;;;12.20;;
29358;SDS011;16347;53.232;6.556;2022-08-19T13:56:54;15.13;;;10.68;;
29358;SDS011;16347;53.232;6.556;2022-08-19T13:59:27;16.77;;;10.70;;
29358;SDS011;16347;53.232;6.556;2022-08-19T14:01:59;15.77;;;10.20;;
29358;SDS011;16347;53.232;6.556;2022-08-19T14:04:27;14.38;;;9.15;;
29358;SDS011;16347;53.232;6.556;2022-08-19T14:07:00;12.45;;;9.82;;
29358;SDS011;16347;53.232;6.556;2022-08-19T14:09:30;9.68;;;7.00;;
29358;SDS011;16347;53.232;6.556;2022-08-19T14:12:00;15.93;;;7.22;;
29358;SDS011;16347;53.232;6.556;2022-08-19T14:14:28;10.43;;;6.07;;
29358;SDS011;16347;53.232;6.556;2022-08-19T14:16:59;11.95;;;6.18;;
29358;SDS011;16347;53.232;6.556;2022-08-19T14:19:27;9.30;;;6.72;;
29358;SDS011;16347;53.232;6.556;2022-08-19T14:21:57;15.77;;;8.43;;
29358;SDS011;16347;53.232;6.556;2022-08-19T14:24:29;23.70;;;10.73;;
29358;SDS011;16347;53.232;6.556;2022-08-19T14:26:59;19.58;;;10.10;;
29358;SDS011;16347;53.232;6.556;2022-08-19T14:29:30;19.33;;;11.75;;
29358;SDS011;16347;53.232;6.556;2022-08-19T14:31:59;24.33;;;11.38;;
29358;SDS011;16347;53.232;6.556;2022-08-19T14:34:31;17.08;;;10.63;;
29358;SDS011;16347;53.232;6.556;2022-08-19T14:37:00;17.73;;;10.63;;
29358;SDS011;16347;53.232;6.556;2022-08-19T14:39:32;20.33;;;13.50;;
29358;SDS011;16347;53.232;6.556;2022-08-19T14:42:00;18.80;;;11.13;;
29358;SDS011;16347;53.232;6.556;2022-08-19T14:44:33;24.25;;;11.32;;
29358;SDS011;16347;53.232;6.556;2022-08-19T14:47:02;19.13;;;11.65;;
29358;SDS011;16347;53.232;6.556;2022-08-19T14:49:35;20.50;;;12.00;;
29358;SDS011;16347;53.232;6.556;2022-08-19T14:52:11;18.27;;;12.02;;
29358;SDS011;16347;53.232;6.556;2022-08-19T14:54:42;20.70;;;13.07;;
29358;SDS011;16347;53.232;6.556;2022-08-19T14:57:11;17.10;;;12.25;;
29358;SDS011;16347;53.232;6.556;2022-08-19T14:59:43;22.00;;;12.20;;
29358;SDS011;16347;53.232;6.556;2022-08-19T15:02:14;18.50;;;12.45;;
29358;SDS011;16347;53.232;6.556;2022-08-19T15:05:00;23.88;;;13.07;;
29358;SDS011;16347;53.232;6.556;2022-08-19T15:07:31;19.40;;;10.98;;
29358;SDS011;16347;53.232;6.556;2022-08-19T15:10:02;19.73;;;12.00;;
29358;SDS011;16347;53.232;6.556;2022-08-19T15:12:35;20.52;;;12.85;;
29358;SDS011;16347;53.232;6.556;2022-08-19T15:15:06;16.63;;;11.15;;
29358;SDS011;16347;53.232;6.556;2022-08-19T15:17:35;19.08;;;11.88;;
29358;SDS011;16347;53.232;6.556;2022-08-19T15:20:13;16.42;;;10.50;;
29358;SDS011;16347;53.232;6.556;2022-08-19T15:22:43;17.77;;;10.35;;
29358;SDS011;16347;53.232;6.556;2022-08-19T15:25:17;17.90;;;12.43;;
29358;SDS011;16347;53.232;6.556;2022-08-19T15:27:47;21.15;;;12.15;;